createdAt,value
2023-02-05T00:30:00.483Z,1026.96
2023-02-05T00:30:40.933Z,1026.99
2023-02-05T00:31:21.592Z,1026.95
2023-02-05T00:32:01.906Z,1026.94
2023-02-05T00:32:42.444Z,1026.91
2023-02-05T00:33:22.869Z,1026.91
2023-02-05T00:34:03.335Z,1026.89
2023-02-05T00:34:43.863Z,1026.87
2023-02-05T00:35:24.321Z,1026.86
2023-02-05T00:36:04.830Z,1026.86
2023-02-05T00:36:45.316Z,1026.86
2023-02-05T00:37:25.849Z,1026.82
2023-02-05T00:38:06.289Z,1026.82
2023-02-05T00:38:46.783Z,1026.79
2023-02-05T00:39:27.286Z,1026.78
2023-02-05T00:40:07.750Z,1026.76
2023-02-05T00:40:48.249Z,1026.81
2023-02-05T00:42:09.203Z,1026.81
2023-02-05T00:42:49.739Z,1026.83
2023-02-05T00:43:30.184Z,1026.85
2023-02-05T00:44:11.599Z,1026.8
2023-02-05T00:44:52.132Z,1026.85
2023-02-05T00:45:32.848Z,1026.88
2023-02-05T00:46:13.185Z,1026.92
2023-02-05T00:46:53.549Z,1026.92
2023-02-05T00:47:34.028Z,1026.92
2023-02-05T00:48:14.529Z,1026.87
2023-02-05T00:48:55.034Z,1026.89
2023-02-05T00:49:35.540Z,1026.87
2023-02-05T00:50:16.004Z,1026.87
2023-02-05T00:50:56.487Z,1026.83
2023-02-05T00:51:37.011Z,1026.83
2023-02-05T00:52:17.488Z,1026.83
2023-02-05T00:52:57.996Z,1026.84
2023-02-05T00:53:38.459Z,1026.82
2023-02-05T00:54:18.918Z,1026.82
2023-02-05T00:54:59.411Z,1026.84
2023-02-05T00:55:39.902Z,1026.81
2023-02-05T00:56:20.457Z,1026.82
2023-02-05T00:57:00.898Z,1026.82
2023-02-05T00:57:41.448Z,1026.82
2023-02-05T00:58:21.878Z,1026.81
2023-02-05T00:59:43.565Z,1026.86
2023-02-05T01:00:24.047Z,1026.78
2023-02-05T01:01:04.650Z,1026.77
2023-02-05T01:01:45.113Z,1026.75
2023-02-05T01:02:25.512Z,1026.72
2023-02-05T01:03:05.966Z,1026.71
2023-02-05T01:03:46.437Z,1026.7
2023-02-05T01:04:26.941Z,1026.64
2023-02-05T01:05:07.386Z,1026.58
2023-02-05T01:05:47.907Z,1026.57
2023-02-05T01:07:08.882Z,1026.56
2023-02-05T01:07:49.375Z,1026.56
2023-02-05T01:08:29.875Z,1026.54
2023-02-05T01:09:10.360Z,1026.56
2023-02-05T01:09:50.851Z,1026.58
2023-02-05T01:10:31.336Z,1026.6
2023-02-05T01:11:11.859Z,1026.64
2023-02-05T01:11:52.324Z,1026.65
2023-02-05T01:12:32.814Z,1026.67
2023-02-05T01:13:13.365Z,1026.66
2023-02-05T01:13:53.828Z,1026.67
2023-02-05T01:14:34.320Z,1026.67
2023-02-05T01:15:14.855Z,1026.65
2023-02-05T01:15:55.347Z,1026.65
2023-02-05T01:16:35.747Z,1026.62
2023-02-05T01:17:16.264Z,1026.62
2023-02-05T01:17:56.707Z,1026.63
2023-02-05T01:18:37.223Z,1026.64
2023-02-05T01:19:17.703Z,1026.66
2023-02-05T01:19:58.158Z,1026.64
2023-02-05T01:20:38.619Z,1026.63
2023-02-05T01:21:19.150Z,1026.61
2023-02-05T01:21:59.605Z,1026.59
2023-02-05T01:22:40.088Z,1026.57
2023-02-05T01:23:20.587Z,1026.53
2023-02-05T01:24:41.620Z,1026.5
2023-02-05T01:25:22.893Z,1026.5
2023-02-05T01:26:03.443Z,1026.47
2023-02-05T01:26:43.882Z,1026.45
2023-02-05T01:27:24.402Z,1026.47
2023-02-05T01:28:04.829Z,1026.45
2023-02-05T01:28:45.349Z,1026.48
2023-02-05T01:29:26.841Z,1026.48
2023-02-05T01:30:06.308Z,1026.48
2023-02-05T01:30:46.938Z,1026.47
2023-02-05T01:31:27.568Z,1026.43
2023-02-05T01:32:07.813Z,1026.42
2023-02-05T01:32:48.298Z,1026.42
2023-02-05T01:33:29.409Z,1026.4
2023-02-05T01:34:09.284Z,1026.39
2023-02-05T01:34:49.732Z,1026.38
2023-02-05T01:35:30.218Z,1026.37
2023-02-05T01:36:10.689Z,1026.35
2023-02-05T01:36:51.247Z,1026.32
2023-02-05T01:37:31.709Z,1026.28
2023-02-05T01:38:12.188Z,1026.24
2023-02-05T01:38:52.668Z,1026.24
2023-02-05T01:39:33.158Z,1026.18
2023-02-05T01:40:13.684Z,1026.14
2023-02-05T01:40:54.149Z,1026.15
2023-02-05T01:42:15.086Z,1026.19
2023-02-05T01:42:55.562Z,1026.17
2023-02-05T01:43:36.074Z,1026.2
2023-02-05T01:44:16.552Z,1026.2
2023-02-05T01:44:57.073Z,1026.23
2023-02-05T01:45:37.560Z,1026.21
2023-02-05T01:46:18.140Z,1026.17
2023-02-05T01:46:58.618Z,1026.19
2023-02-05T01:47:39.104Z,1026.19
2023-02-05T01:48:19.561Z,1026.16
2023-02-05T01:49:00.024Z,1026.19
2023-02-05T01:49:40.530Z,1026.23
2023-02-05T01:50:20.991Z,1026.24
2023-02-05T01:51:01.518Z,1026.23
2023-02-05T01:51:41.965Z,1026.25
2023-02-05T01:52:22.435Z,1026.26
2023-02-05T01:53:02.902Z,1026.27
2023-02-05T01:53:43.443Z,1026.29
2023-02-05T01:54:23.924Z,1026.24
2023-02-05T01:55:04.430Z,1026.25
2023-02-05T01:55:44.933Z,1026.22
2023-02-05T01:56:25.433Z,1026.19
2023-02-05T01:57:05.906Z,1026.22
2023-02-05T01:57:46.408Z,1026.16
2023-02-05T01:58:26.901Z,1026.14
2023-02-05T01:59:09.325Z,1026.14
2023-02-05T01:59:47.878Z,1026.23
2023-02-05T02:00:28.358Z,1026.23
2023-02-05T02:01:08.863Z,1026.25
2023-02-05T02:01:49.376Z,1026.25
2023-02-05T02:02:29.847Z,1026.25
2023-02-05T02:03:10.352Z,1025.92
2023-02-05T02:03:50.799Z,1026.31
2023-02-05T02:04:31.317Z,1026.28
2023-02-05T02:05:11.810Z,1026.26
2023-02-05T02:05:52.308Z,1026.29
2023-02-05T02:06:32.764Z,1026.26
2023-02-05T02:07:53.695Z,1026.27
2023-02-05T02:08:34.187Z,1026.27
2023-02-05T02:09:14.653Z,1026.23
2023-02-05T02:09:55.122Z,1026.25
2023-02-05T02:10:35.634Z,1026.21
2023-02-05T02:11:16.116Z,1026.2
2023-02-05T02:11:56.592Z,1026.22
2023-02-05T02:12:37.074Z,1026.22
2023-02-05T02:13:17.549Z,1026.24
2023-02-05T02:13:58.044Z,1026.19
2023-02-05T02:15:56.210Z,1026.08
2023-02-05T02:16:36.646Z,1026.1
2023-02-05T02:17:17.163Z,1026.06
2023-02-05T02:17:57.652Z,1026.12
2023-02-05T02:18:38.162Z,1026.13
2023-02-05T02:19:18.673Z,1026.2
2023-02-05T02:19:59.204Z,1026.23
2023-02-05T02:20:39.709Z,1026.24
2023-02-05T02:21:20.199Z,1026.27
2023-02-05T02:22:00.707Z,1026.25
2023-02-05T02:22:41.216Z,1026.24
2023-02-05T02:23:21.678Z,1026.19
2023-02-05T02:24:02.199Z,1026.2
2023-02-05T02:24:42.716Z,1026.23
2023-02-05T02:25:23.160Z,1026.24
2023-02-05T02:26:03.639Z,1026.24
2023-02-05T02:26:44.166Z,1026.25
2023-02-05T02:27:24.658Z,1026.28
2023-02-05T02:28:05.244Z,1026.29
2023-02-05T02:28:45.716Z,1026.34
2023-02-05T02:29:26.174Z,1026.36
2023-02-05T02:30:06.683Z,1026.39
2023-02-05T02:31:27.713Z,1026.39
2023-02-05T02:32:08.186Z,1026.44
2023-02-05T02:32:48.696Z,1026.49
2023-02-05T02:33:29.189Z,1026.49
2023-02-05T02:34:09.720Z,1026.54
2023-02-05T02:34:50.197Z,1026.6
2023-02-05T02:35:30.659Z,1026.62
2023-02-05T02:36:11.191Z,1026.61
2023-02-05T02:36:51.711Z,1026.61
2023-02-05T02:37:32.221Z,1026.62
2023-02-05T02:38:12.692Z,1026.6
2023-02-05T02:38:53.190Z,1026.59
2023-02-05T02:39:33.724Z,1026.56
2023-02-05T02:40:14.197Z,1026.61
2023-02-05T02:41:35.143Z,1026.58
2023-02-05T02:42:15.649Z,1026.6
2023-02-05T02:42:56.120Z,1026.55
2023-02-05T02:43:36.570Z,1026.56
2023-02-05T02:44:17.054Z,1026.59
2023-02-05T02:44:57.580Z,1026.57
2023-02-05T02:45:38.025Z,1026.6
2023-02-05T02:46:18.544Z,1026.59
2023-02-05T02:46:58.996Z,1026.58
2023-02-05T02:50:12.648Z,1026.48
2023-02-05T02:50:53.701Z,1026.47
2023-02-05T02:51:34.190Z,1026.45
2023-02-05T02:52:14.683Z,1026.41
2023-02-05T02:52:55.191Z,1026.39
2023-02-05T02:53:35.660Z,1026.4
2023-02-05T02:54:16.187Z,1026.41
2023-02-05T02:54:56.636Z,1026.4
2023-02-05T02:55:37.121Z,1026.37
2023-02-05T02:56:18.308Z,1026.35
2023-02-05T02:56:58.842Z,1026.35
2023-02-05T02:57:39.323Z,1026.32
2023-02-05T02:58:19.805Z,1026.33
2023-02-05T02:59:00.290Z,1026.34
2023-02-05T02:59:40.843Z,1026.35
2023-02-05T03:00:21.270Z,1026.37
2023-02-05T03:01:01.799Z,1026.43
2023-02-05T03:01:44.638Z,1026.38
2023-02-05T03:02:22.763Z,1026.35
2023-02-05T03:03:03.281Z,1026.37
2023-02-05T03:04:24.340Z,1026.35
2023-02-05T03:05:04.780Z,1026.36
2023-02-05T03:05:45.290Z,1026.33
2023-02-05T03:06:25.738Z,1026.34
2023-02-05T03:07:06.263Z,1026.35
2023-02-05T03:07:46.748Z,1026.34
2023-02-05T03:08:27.329Z,1026.38
2023-02-05T03:09:07.767Z,1026.35
2023-02-05T03:09:48.292Z,1026.39
2023-02-05T03:10:28.824Z,1026.34
2023-02-05T03:11:09.351Z,1026.39
2023-02-05T03:11:49.793Z,1026.38
2023-02-05T03:12:30.316Z,1026.31
2023-02-05T03:13:10.820Z,1026.34
2023-02-05T03:14:31.793Z,1026.24
2023-02-05T03:15:12.270Z,1026.18
2023-02-05T03:15:52.766Z,1026.17
2023-02-05T03:16:33.361Z,1026.15
2023-02-05T03:17:13.721Z,1026.17
2023-02-05T03:17:54.236Z,1026.12
2023-02-05T03:18:34.725Z,1026.13
2023-02-05T03:19:15.184Z,1026.12
2023-02-05T03:19:55.679Z,1026.1
2023-02-05T03:20:36.157Z,1026.04
2023-02-05T03:21:16.712Z,1026.02
2023-02-05T03:21:57.184Z,1026.02
2023-02-05T03:22:37.681Z,1026.02
2023-02-05T03:23:18.196Z,1026.01
2023-02-05T03:23:58.695Z,1026.02
2023-02-05T03:24:39.180Z,1025.96
2023-02-05T03:25:19.657Z,1025.96
2023-02-05T03:26:00.162Z,1025.96
2023-02-05T03:26:40.606Z,1025.95
2023-02-05T03:27:21.136Z,1025.96
2023-02-05T03:28:01.626Z,1025.97
2023-02-05T03:28:42.104Z,1025.93
2023-02-05T03:29:22.584Z,1025.95
2023-02-05T03:30:03.072Z,1025.92
2023-02-05T03:30:43.626Z,1025.92
2023-02-05T03:31:24.101Z,1025.86
2023-02-05T03:32:04.610Z,1025.87
2023-02-05T03:32:45.077Z,1025.88
2023-02-05T03:33:25.585Z,1025.93
2023-02-05T03:34:06.075Z,1025.9
2023-02-05T03:34:46.627Z,1025.97
2023-02-05T03:35:27.138Z,1025.96
2023-02-05T03:36:07.625Z,1025.95
2023-02-05T03:36:48.169Z,1025.95
2023-02-05T03:37:28.751Z,1025.91
2023-02-05T03:38:09.186Z,1025.97
2023-02-05T03:38:49.690Z,1025.96
2023-02-05T03:39:30.184Z,1025.98
2023-02-05T03:40:10.642Z,1025.99
2023-02-05T03:40:51.098Z,1025.98
2023-02-05T03:41:31.591Z,1025.97
2023-02-05T03:42:12.051Z,1025.94
2023-02-05T03:42:52.533Z,1025.92
2023-02-05T03:43:33.017Z,1025.89
2023-02-05T03:44:13.498Z,1025.9
2023-02-05T03:44:53.987Z,1025.89
2023-02-05T03:45:34.709Z,1025.85
2023-02-05T03:46:14.971Z,1025.89
2023-02-05T03:46:55.445Z,1025.86
2023-02-05T03:47:35.975Z,1025.83
2023-02-05T03:48:16.531Z,1025.86
2023-02-05T03:48:56.944Z,1025.83
2023-02-05T03:49:37.473Z,1025.84
2023-02-05T03:50:17.965Z,1025.84
2023-02-05T03:50:58.428Z,1025.88
2023-02-05T03:51:38.889Z,1025.84
2023-02-05T03:52:19.397Z,1025.85
2023-02-05T03:52:59.870Z,1025.87
2023-02-05T03:53:40.364Z,1025.86
2023-02-05T03:54:20.866Z,1025.86
2023-02-05T03:55:01.402Z,1025.84
2023-02-05T03:55:41.887Z,1025.83
2023-02-05T03:56:22.397Z,1025.82
2023-02-05T03:57:02.900Z,1025.77
2023-02-05T03:57:43.375Z,1025.78
2023-02-05T03:58:23.898Z,1025.76
2023-02-05T03:59:04.429Z,1025.77
2023-02-05T03:59:44.873Z,1025.77
2023-02-05T04:01:05.914Z,1025.68
2023-02-05T04:01:46.366Z,1025.7
2023-02-05T04:02:26.933Z,1025.73
2023-02-05T04:03:07.394Z,1025.74
2023-02-05T04:03:47.896Z,1025.72
2023-02-05T04:04:28.378Z,1025.72
2023-02-05T04:05:08.853Z,1025.72
2023-02-05T04:05:49.361Z,1025.7
2023-02-05T04:06:29.840Z,1025.69
2023-02-05T04:07:10.396Z,1025.74
2023-02-05T04:08:31.318Z,1025.8
2023-02-05T04:09:11.827Z,1025.85
2023-02-05T04:09:52.317Z,1025.85
2023-02-05T04:10:32.871Z,1025.81
2023-02-05T04:11:13.315Z,1025.8
2023-02-05T04:11:53.861Z,1025.84
2023-02-05T04:12:34.353Z,1025.8
2023-02-05T04:13:14.865Z,1025.8
2023-02-05T04:13:55.335Z,1025.84
2023-02-05T04:14:35.834Z,1025.81
2023-02-05T04:15:16.385Z,1025.8
2023-02-05T04:15:56.884Z,1025.81
2023-02-05T04:16:37.412Z,1025.79
2023-02-05T04:17:17.832Z,1025.8
2023-02-05T04:17:58.296Z,1025.84
2023-02-05T04:18:38.772Z,1025.83
2023-02-05T04:19:19.296Z,1025.84
2023-02-05T04:19:59.742Z,1025.89
2023-02-05T04:20:40.259Z,1025.93
2023-02-05T04:21:20.717Z,1025.93
2023-02-05T04:22:01.220Z,1025.95
2023-02-05T04:22:41.725Z,1025.94
2023-02-05T04:23:22.226Z,1025.95
2023-02-05T04:24:02.811Z,1025.93
2023-02-05T04:24:43.144Z,1025.92
2023-02-05T04:26:04.118Z,1025.93
2023-02-05T04:26:44.633Z,1025.92
2023-02-05T04:27:25.135Z,1025.97
2023-02-05T04:28:05.647Z,1025.96
2023-02-05T04:28:46.073Z,1025.93
2023-02-05T04:29:26.550Z,1025.97
2023-02-05T04:30:07.004Z,1025.97
2023-02-05T04:30:47.477Z,1025.98
2023-02-05T04:31:27.980Z,1025.97
2023-02-05T04:32:08.471Z,1025.98
2023-02-05T04:32:48.932Z,1025.95
2023-02-05T04:33:29.468Z,1025.95
2023-02-05T04:34:09.945Z,1025.95
2023-02-05T04:34:50.445Z,1025.95
2023-02-05T04:35:30.932Z,1025.94
2023-02-05T04:36:11.437Z,1025.93
2023-02-05T04:36:51.951Z,1025.95
2023-02-05T04:37:32.465Z,1025.97
2023-02-05T04:38:12.938Z,1026
2023-02-05T04:38:53.422Z,1026
2023-02-05T04:39:33.915Z,1026.03
2023-02-05T04:40:14.413Z,1026.01
2023-02-05T04:40:55.729Z,1026.01
2023-02-05T04:41:36.218Z,1026.02
2023-02-05T04:42:16.755Z,1026.06
2023-02-05T04:42:57.225Z,1026.04
2023-02-05T04:43:38.572Z,1026.01
2023-02-05T04:44:19.059Z,1026.04
2023-02-05T04:44:59.523Z,1026.07
2023-02-05T04:45:40.099Z,1026.08
2023-02-05T04:46:20.580Z,1026.11
2023-02-05T04:47:00.981Z,1026.11
2023-02-05T04:47:41.486Z,1026.09
2023-02-05T04:48:21.928Z,1026.09
2023-02-05T04:49:02.407Z,1026.14
2023-02-05T04:49:42.914Z,1026.13
2023-02-05T04:50:23.411Z,1026.16
2023-02-05T04:51:03.873Z,1026.14
2023-02-05T04:51:44.358Z,1026.13
2023-02-05T04:52:24.797Z,1026.16
2023-02-05T04:53:45.831Z,1026.12
2023-02-05T04:54:26.358Z,1026.13
2023-02-05T04:55:06.815Z,1026.12
2023-02-05T04:55:47.277Z,1026.12
2023-02-05T04:56:27.836Z,1026.11
2023-02-05T04:57:08.321Z,1026.08
2023-02-05T04:57:49.463Z,1026.05
2023-02-05T04:58:29.283Z,1026.01
2023-02-05T04:59:09.775Z,1026.05
2023-02-05T04:59:50.239Z,1026.1
2023-02-05T05:01:11.228Z,1026.13
2023-02-05T05:01:51.730Z,1026.13
2023-02-05T05:02:32.331Z,1026.21
2023-02-05T05:03:12.816Z,1026.16
2023-02-05T05:03:53.364Z,1026.19
2023-02-05T05:04:33.808Z,1026.27
2023-02-05T05:05:14.257Z,1026.23
2023-02-05T05:05:54.746Z,1026.23
2023-02-05T05:06:35.307Z,1026.23
2023-02-05T05:09:50.999Z,1026.16
2023-02-05T05:10:30.367Z,1026.15
2023-02-05T05:11:11.364Z,1026.15
2023-02-05T05:11:52.306Z,1026.08
2023-02-05T05:12:33.341Z,1026.08
2023-02-05T05:13:14.300Z,1026.1
2023-02-05T05:13:55.247Z,1026.08
2023-02-05T05:14:36.206Z,1026.09
2023-02-05T05:15:17.183Z,1026.1
2023-02-05T05:15:58.216Z,1026.14
2023-02-05T05:16:39.184Z,1026.12
2023-02-05T05:17:20.156Z,1026.07
2023-02-05T05:18:43.008Z,1026.06
2023-02-05T05:21:10.481Z,1026.13
2023-02-05T05:21:50.871Z,1026.13
2023-02-05T05:22:31.371Z,1026.16
2023-02-05T05:23:11.818Z,1026.15
2023-02-05T05:23:52.346Z,1026.19
2023-02-05T05:24:32.852Z,1026.14
2023-02-05T05:25:13.317Z,1026.18
2023-02-05T05:25:54.423Z,1026.15
2023-02-05T05:26:34.286Z,1026.18
2023-02-05T05:27:14.760Z,1026.18
2023-02-05T05:28:35.748Z,1026.12
2023-02-05T05:29:16.196Z,1026.11
2023-02-05T05:29:56.651Z,1026.09
2023-02-05T05:30:37.135Z,1026.05
2023-02-05T05:31:17.660Z,1026.05
2023-02-05T05:31:58.120Z,1026.05
2023-02-05T05:32:38.599Z,1025.98
2023-02-05T05:33:19.075Z,1025.98
2023-02-05T05:33:59.555Z,1025.99
2023-02-05T05:34:40.695Z,1025.97
2023-02-05T05:35:21.183Z,1025.96
2023-02-05T05:36:01.687Z,1026
2023-02-05T05:36:42.173Z,1025.95
2023-02-05T05:37:22.635Z,1025.97
2023-02-05T05:38:03.122Z,1025.92
2023-02-05T05:38:43.612Z,1025.92
2023-02-05T05:39:24.121Z,1025.87
2023-02-05T05:40:04.571Z,1025.87
2023-02-05T05:40:45.108Z,1025.85
2023-02-05T05:41:25.616Z,1025.86
2023-02-05T05:42:06.033Z,1025.84
2023-02-05T05:42:46.529Z,1025.88
2023-02-05T05:44:07.525Z,1025.93
2023-02-05T05:44:48.030Z,1025.89
2023-02-05T05:45:28.512Z,1025.92
2023-02-05T05:46:09.033Z,1025.87
2023-02-05T05:46:49.506Z,1025.89
2023-02-05T05:47:30.013Z,1025.88
2023-02-05T05:48:10.494Z,1025.91
2023-02-05T05:48:51.067Z,1025.92
2023-02-05T05:49:31.526Z,1025.92
2023-02-05T05:50:12.000Z,1025.87
2023-02-05T05:51:33.006Z,1025.9
2023-02-05T05:52:13.513Z,1025.92
2023-02-05T06:31:04.831Z,1025.83
2023-02-05T06:31:45.247Z,1025.79
2023-02-05T06:32:26.870Z,1025.8
2023-02-05T06:33:06.111Z,1025.79
2023-02-05T06:33:46.605Z,1025.81
2023-02-05T06:34:27.071Z,1025.82
2023-02-05T06:35:07.612Z,1025.8
2023-02-05T06:35:48.086Z,1025.81
2023-02-05T06:36:28.620Z,1025.82
2023-02-05T06:37:09.124Z,1025.79
2023-02-05T06:37:49.602Z,1025.75
2023-02-05T06:38:30.096Z,1025.74
2023-02-05T06:39:10.555Z,1025.77
2023-02-05T06:39:51.037Z,1025.75
2023-02-05T06:40:31.509Z,1025.74
2023-02-05T06:41:11.978Z,1025.72
2023-02-05T06:41:52.443Z,1025.74
2023-02-05T06:42:32.969Z,1025.75
2023-02-05T06:43:13.432Z,1025.69
2023-02-05T06:43:53.949Z,1025.74
2023-02-05T06:44:34.428Z,1025.72
2023-02-05T06:45:14.992Z,1025.69
2023-02-05T06:45:55.413Z,1025.7
2023-02-05T06:46:35.944Z,1025.78
2023-02-05T06:47:56.875Z,1025.76
2023-02-05T06:48:37.406Z,1025.83
2023-02-05T06:49:17.867Z,1025.75
2023-02-05T06:49:58.346Z,1025.74
2023-02-05T06:50:38.823Z,1025.78
2023-02-05T06:51:19.290Z,1025.78
2023-02-05T06:51:59.790Z,1025.77
2023-02-05T06:52:40.326Z,1025.77
2023-02-05T06:53:21.692Z,1025.76
2023-02-05T06:54:02.138Z,1025.74
2023-02-05T06:55:23.154Z,1025.73
2023-02-05T06:56:03.586Z,1025.71
2023-02-05T06:56:44.094Z,1025.71
2023-02-05T06:57:24.575Z,1025.68
2023-02-05T06:58:05.076Z,1025.71
2023-02-05T06:58:45.578Z,1025.73
2023-02-05T06:59:26.051Z,1025.63
2023-02-05T07:00:06.632Z,1025.66
2023-02-05T07:00:47.121Z,1025.67
2023-02-05T07:01:27.696Z,1025.68
2023-02-05T07:02:08.241Z,1025.67
2023-02-05T07:02:48.774Z,1025.68
2023-02-05T07:03:29.351Z,1025.7
2023-02-05T07:04:09.857Z,1025.69
2023-02-05T07:04:50.408Z,1025.66
2023-02-05T07:05:31.071Z,1025.69
2023-02-05T07:06:11.552Z,1025.67
2023-02-05T07:06:52.041Z,1025.65
2023-02-05T07:07:32.514Z,1025.59
2023-02-05T07:08:13.098Z,1025.7
2023-02-05T07:08:53.495Z,1025.64
2023-02-05T07:09:34.011Z,1025.72
2023-02-05T07:10:14.617Z,1025.68
2023-02-05T07:10:55.382Z,1025.66
2023-02-05T07:11:35.746Z,1025.68
2023-02-05T07:12:16.205Z,1025.63
2023-02-05T07:12:56.768Z,1025.66
2023-02-05T07:13:37.522Z,1025.68
2023-02-05T07:14:18.198Z,1025.64
2023-02-05T07:14:58.683Z,1025.6
2023-02-05T07:15:39.147Z,1025.67
2023-02-05T07:16:19.748Z,1025.66
2023-02-05T07:17:00.135Z,1025.67
2023-02-05T07:17:40.730Z,1025.66
2023-02-05T07:18:21.133Z,1025.7
2023-02-05T07:19:01.675Z,1025.73
2023-02-05T07:19:42.141Z,1025.72
2023-02-05T07:20:23.004Z,1025.71
2023-02-05T07:21:03.497Z,1025.7
2023-02-05T07:21:44.017Z,1025.75
2023-02-05T07:22:25.756Z,1025.74
2023-02-05T07:23:06.246Z,1025.72
2023-02-05T07:23:46.797Z,1025.7
2023-02-05T07:24:27.259Z,1025.69
2023-02-05T07:25:48.299Z,1025.71
2023-02-05T07:26:28.762Z,1025.69
2023-02-05T07:27:09.583Z,1025.73
2023-02-05T07:27:50.100Z,1025.7
2023-02-05T07:28:30.529Z,1025.67
2023-02-05T07:29:11.058Z,1025.7
2023-02-05T07:29:51.544Z,1025.63
2023-02-05T07:30:32.081Z,1025.66
2023-02-05T07:31:12.935Z,1025.64
2023-02-05T07:31:53.514Z,1025.66
2023-02-05T07:33:14.564Z,1025.64
2023-02-05T07:33:55.000Z,1025.64
2023-02-05T07:34:35.616Z,1025.65
2023-02-05T07:35:15.996Z,1025.68
2023-02-05T07:35:56.499Z,1025.65
2023-02-05T07:36:36.920Z,1025.62
2023-02-05T07:37:17.430Z,1025.64
2023-02-05T07:37:57.917Z,1025.64
2023-02-05T07:38:38.469Z,1025.69
2023-02-05T07:39:19.001Z,1025.66
2023-02-05T07:40:40.313Z,1025.69
2023-02-05T07:41:21.182Z,1025.66
2023-02-05T07:42:01.156Z,1025.67
2023-02-05T07:42:41.668Z,1025.68
2023-02-05T07:43:22.526Z,1025.66
2023-02-05T07:44:03.125Z,1025.67
2023-02-05T07:44:43.614Z,1025.68
2023-02-05T07:45:24.105Z,1025.66
2023-02-05T07:46:04.589Z,1025.7
2023-02-05T07:46:45.149Z,1025.71
2023-02-05T07:47:25.645Z,1025.7
2023-02-05T07:48:06.260Z,1025.73
2023-02-05T07:48:47.031Z,1025.72
2023-02-05T07:49:27.542Z,1025.68
2023-02-05T07:50:08.035Z,1025.75
2023-02-05T07:50:48.508Z,1025.75
2023-02-05T07:51:29.024Z,1025.71
2023-02-05T07:52:09.557Z,1025.7
2023-02-05T07:52:50.119Z,1025.71
2023-02-05T07:53:30.639Z,1025.71
2023-02-05T07:54:11.430Z,1025.76
2023-02-05T07:54:51.743Z,1025.72
2023-02-05T07:55:32.439Z,1025.73
2023-02-05T07:56:12.761Z,1025.73
2023-02-05T07:56:53.265Z,1025.71
2023-02-05T07:57:33.848Z,1025.68
2023-02-05T07:58:15.181Z,1025.69
2023-02-05T07:58:55.656Z,1025.71
2023-02-05T07:59:36.155Z,1025.67
2023-02-05T08:00:16.674Z,1025.69
2023-02-05T08:00:57.161Z,1025.62
2023-02-05T08:01:37.713Z,1025.66
2023-02-05T08:02:18.157Z,1025.72
2023-02-05T08:02:58.829Z,1025.65
2023-02-05T08:03:39.246Z,1025.68
2023-02-05T08:04:19.821Z,1025.67
2023-02-05T08:05:00.210Z,1025.64
2023-02-05T08:05:40.943Z,1025.67
2023-02-05T08:06:21.827Z,1025.63
2023-02-05T08:07:02.313Z,1025.68
2023-02-05T08:07:43.479Z,1025.67
2023-02-05T08:08:24.074Z,1025.63
2023-02-05T08:09:04.599Z,1025.71
2023-02-05T08:09:45.097Z,1025.71
2023-02-05T08:10:25.792Z,1025.63
2023-02-05T08:11:07.506Z,1025.61
2023-02-05T08:11:48.341Z,1025.64
2023-02-05T08:12:28.709Z,1025.59
2023-02-05T08:13:10.316Z,1025.56
2023-02-05T08:13:52.688Z,1025.52
2023-02-05T08:14:33.253Z,1025.53
2023-02-05T08:15:13.828Z,1025.6
2023-02-05T08:15:54.526Z,1025.5
2023-02-05T08:16:35.188Z,1025.53
2023-02-05T08:17:15.544Z,1025.6
2023-02-05T08:17:56.304Z,1025.51
2023-02-05T08:18:36.784Z,1025.54
2023-02-05T08:19:17.256Z,1025.62
2023-02-05T08:19:57.806Z,1025.56
2023-02-05T08:20:38.319Z,1025.54
2023-02-05T08:21:18.829Z,1025.57
2023-02-05T08:22:00.179Z,1025.52
2023-02-05T08:22:40.789Z,1025.53
2023-02-05T08:23:20.424Z,1025.53
2023-02-05T08:24:00.924Z,1025.54
2023-02-05T08:24:41.599Z,1025.5
2023-02-05T08:25:22.119Z,1025.51
2023-02-05T08:26:02.680Z,1025.58
2023-02-05T08:26:43.145Z,1025.51
2023-02-05T08:27:23.649Z,1025.54
2023-02-05T08:28:04.337Z,1025.47
2023-02-05T08:28:44.666Z,1025.52
2023-02-05T08:29:25.134Z,1025.55
2023-02-05T08:30:05.679Z,1025.55
2023-02-05T08:30:46.728Z,1025.55
2023-02-05T08:31:27.318Z,1025.56
2023-02-05T08:32:07.776Z,1025.59
2023-02-05T08:32:48.208Z,1025.62
2023-02-05T08:33:28.833Z,1025.54
2023-02-05T08:34:09.407Z,1025.5
2023-02-05T08:34:51.178Z,1025.5
2023-02-05T08:35:30.913Z,1025.56
2023-02-05T08:36:11.660Z,1025.55
2023-02-05T08:36:53.245Z,1025.57
2023-02-05T08:37:32.881Z,1025.61
2023-02-05T08:38:13.367Z,1025.63
2023-02-05T08:38:53.819Z,1025.58
2023-02-05T08:39:34.352Z,1025.58
2023-02-05T08:40:14.891Z,1025.56
2023-02-05T08:45:08.027Z,1025.68
2023-02-05T08:45:49.343Z,1025.69
2023-02-05T08:46:40.266Z,1025.64
2023-02-05T08:47:10.784Z,1025.74
2023-02-05T08:47:51.634Z,1025.73
2023-02-05T08:48:32.359Z,1025.65
2023-02-05T08:49:12.884Z,1025.59
2023-02-05T08:49:53.353Z,1025.63
2023-02-05T08:50:33.974Z,1025.49
2023-02-05T08:51:14.950Z,1025.65
2023-02-05T08:51:55.900Z,1025.59
2023-02-05T08:52:37.364Z,1025.6
2023-02-05T08:53:17.590Z,1025.59
2023-02-05T08:53:58.071Z,1025.62
2023-02-05T08:54:38.677Z,1025.69
2023-02-05T08:55:19.114Z,1025.69
2023-02-05T08:56:00.008Z,1025.65
2023-02-05T08:57:21.276Z,1025.62
2023-02-05T08:58:01.551Z,1025.7
2023-02-05T08:58:42.105Z,1025.72
2023-02-05T08:59:23.870Z,1025.67
2023-02-05T09:00:04.275Z,1025.65
2023-02-05T09:00:44.789Z,1025.58
2023-02-05T09:03:43.549Z,1025.75
2023-02-05T09:04:24.134Z,1025.75
2023-02-05T09:05:09.131Z,1025.78
2023-02-05T09:05:46.202Z,1025.79
2023-02-05T09:06:26.662Z,1025.78
2023-02-05T09:07:07.155Z,1025.86
2023-02-05T09:07:47.663Z,1025.82
2023-02-05T09:08:29.853Z,1025.94
2023-02-05T09:09:08.732Z,1025.87
2023-02-05T09:09:49.212Z,1025.94
2023-02-05T09:10:29.912Z,1025.95
2023-02-05T09:11:10.389Z,1025.93
2023-02-05T09:11:50.881Z,1026.02
2023-02-05T09:12:31.341Z,1025.87
2023-02-05T09:13:11.818Z,1025.93
2023-02-05T09:13:52.337Z,1025.97
2023-02-05T09:14:32.821Z,1025.96
2023-02-05T09:15:13.356Z,1025.86
2023-02-05T09:15:53.903Z,1025.93
2023-02-05T09:16:34.466Z,1025.97
2023-02-05T09:17:14.894Z,1025.91
2023-02-05T09:17:55.416Z,1025.94
2023-02-05T09:18:35.873Z,1025.94
2023-02-05T09:19:17.176Z,1025.98
2023-02-05T09:19:57.724Z,1026.07
2023-02-05T09:20:38.278Z,1025.96
2023-02-05T09:21:18.827Z,1026.06
2023-02-05T09:21:59.310Z,1026.11
2023-02-05T09:22:40.244Z,1026.16
2023-02-05T09:23:21.589Z,1026.11
2023-02-05T09:24:02.041Z,1026.19
2023-02-05T09:24:43.050Z,1026.02
2023-02-05T09:25:24.160Z,1026.18
2023-02-05T09:26:04.665Z,1026.15
2023-02-05T09:26:45.012Z,1026.11
2023-02-05T09:27:25.498Z,1026.16
2023-02-05T09:28:06.032Z,1026.08
2023-02-05T09:28:46.597Z,1026.16
2023-02-05T09:29:27.100Z,1026.17
2023-02-05T09:30:07.848Z,1026.17
2023-02-05T09:30:48.324Z,1026.01
2023-02-05T09:31:28.913Z,1026.14
2023-02-05T09:32:09.360Z,1026.13
2023-02-05T09:32:50.254Z,1026.22
2023-02-05T09:33:30.839Z,1026.12
2023-02-05T09:34:11.289Z,1026.25
2023-02-05T09:34:51.799Z,1026.19
2023-02-05T09:35:32.619Z,1026.31
2023-02-05T09:36:12.809Z,1026.16
2023-02-05T09:36:53.369Z,1026.17
2023-02-05T09:37:33.782Z,1026.25
2023-02-05T09:38:14.267Z,1026.22
2023-02-05T09:39:08.496Z,1026.19
2023-02-05T09:40:21.129Z,1026.29
2023-02-05T09:40:56.946Z,1026.3
2023-02-05T09:41:37.813Z,1026.31
2023-02-05T09:42:18.358Z,1026.4
2023-02-05T09:42:58.944Z,1026.3
2023-02-05T09:43:39.397Z,1026.31
2023-02-05T09:44:19.861Z,1026.28
2023-02-05T09:45:00.394Z,1026.3
2023-02-05T09:45:41.092Z,1026.41
2023-02-05T09:46:22.393Z,1026.33
2023-02-05T09:47:02.803Z,1026.38
2023-02-05T09:47:43.348Z,1026.32
2023-02-05T09:48:23.876Z,1026.35
2023-02-05T09:49:04.364Z,1026.25
2023-02-05T09:49:45.653Z,1026.32
2023-02-05T09:50:26.177Z,1026.28
2023-02-05T09:51:06.708Z,1026.33
2023-02-05T09:51:47.231Z,1026.37